createdAt,value
2019-03-26T00:01:41.315Z,2.03
2019-03-26T00:04:09.672Z,2.90
2019-03-26T00:06:37.909Z,2.80
2019-03-26T00:09:08.072Z,2.90
2019-03-26T00:11:36.584Z,3.17
2019-03-26T00:14:04.911Z,2.87
2019-03-26T00:16:33.155Z,3.07
2019-03-26T00:19:01.455Z,2.70
2019-03-26T00:21:30.172Z,2.00
2019-03-26T00:23:58.481Z,2.20
2019-03-26T00:26:26.771Z,3.10
2019-03-26T00:28:55.068Z,3.77
2019-03-26T00:31:24.044Z,1.90
2019-03-26T00:33:52.283Z,2.33
2019-03-26T00:36:20.552Z,2.30
2019-03-26T00:38:48.995Z,3.03
2019-03-26T00:41:17.385Z,4.00
2019-03-26T00:43:45.628Z,2.20
2019-03-26T00:46:13.919Z,2.07
2019-03-26T00:48:42.253Z,2.40
2019-03-26T00:51:10.505Z,2.50
2019-03-26T00:53:38.803Z,2.20
2019-03-26T00:56:07.051Z,1.80
2019-03-26T00:58:35.296Z,2.43
2019-03-26T01:01:03.685Z,2.80
2019-03-26T01:03:32.014Z,1.77
2019-03-26T01:06:00.286Z,3.10
2019-03-26T01:08:28.661Z,1.97
2019-03-26T01:10:56.900Z,2.77
2019-03-26T01:13:25.215Z,2.80
2019-03-26T01:15:53.488Z,2.53
2019-03-26T01:18:21.829Z,3.00
2019-03-26T01:20:50.991Z,2.70
2019-03-26T01:23:19.402Z,2.60
2019-03-26T01:25:47.819Z,3.20
2019-03-26T01:28:16.154Z,2.93
2019-03-26T01:30:44.681Z,2.83
2019-03-26T01:33:13.167Z,3.23
2019-03-26T01:35:41.416Z,3.47
2019-03-26T01:38:10.407Z,3.30
2019-03-26T01:40:38.753Z,2.73
2019-03-26T01:43:07.787Z,2.40
2019-03-26T01:45:36.073Z,2.00
2019-03-26T01:48:04.400Z,3.03
2019-03-26T01:50:32.701Z,2.57
2019-03-26T01:53:00.981Z,2.30
2019-03-26T01:55:29.387Z,2.90
2019-03-26T01:57:58.206Z,3.20
2019-03-26T02:00:26.474Z,3.43
2019-03-26T02:02:54.769Z,3.27
2019-03-26T02:05:23.032Z,2.03
2019-03-26T02:07:51.417Z,2.60
2019-03-26T02:10:19.986Z,3.20
2019-03-26T02:12:48.787Z,3.07
2019-03-26T02:15:25.930Z,2.50
2019-03-26T02:17:54.199Z,3.07
2019-03-26T02:20:22.450Z,2.20
2019-03-26T02:22:50.837Z,2.57
2019-03-26T02:25:19.079Z,2.77
2019-03-26T02:27:47.450Z,2.70
2019-03-26T02:30:15.864Z,2.30
2019-03-26T02:32:44.105Z,2.57
2019-03-26T02:35:18.218Z,3.53
2019-03-26T02:37:42.505Z,3.07
2019-03-26T02:40:10.756Z,2.30
2019-03-26T02:42:38.997Z,2.00
2019-03-26T02:45:07.418Z,3.07
2019-03-26T02:47:35.685Z,3.00
2019-03-26T02:50:06.560Z,2.03
2019-03-26T02:52:34.921Z,1.60
2019-03-26T02:55:03.642Z,2.23
2019-03-26T02:57:32.677Z,2.20
2019-03-26T03:00:00.960Z,2.40
2019-03-26T03:02:29.219Z,2.27
2019-03-26T03:04:57.610Z,3.43
2019-03-26T03:07:25.888Z,2.10
2019-03-26T03:09:55.053Z,2.67
2019-03-26T03:12:23.389Z,3.20
2019-03-26T03:14:51.625Z,2.43
2019-03-26T03:17:20.114Z,3.40
2019-03-26T03:19:48.414Z,1.93
2019-03-26T03:22:16.672Z,3.53
2019-03-26T03:24:44.987Z,3.73
2019-03-26T03:27:13.509Z,2.90
2019-03-26T03:29:41.802Z,2.00
2019-03-26T03:32:10.090Z,2.13
2019-03-26T03:34:38.677Z,2.53
2019-03-26T03:37:07.508Z,1.73
2019-03-26T03:39:35.948Z,2.77
2019-03-26T03:42:04.339Z,2.40
2019-03-26T03:44:32.580Z,2.00
2019-03-26T03:47:00.887Z,2.03
2019-03-26T03:49:29.305Z,2.10
2019-03-26T03:51:57.648Z,2.13
2019-03-26T03:54:26.262Z,4.00
2019-03-26T03:56:54.501Z,4.77
2019-03-26T03:59:22.806Z,3.83
2019-03-26T04:01:51.756Z,3.23
2019-03-26T04:04:20.061Z,2.53
2019-03-26T04:06:48.298Z,3.53
2019-03-26T04:09:16.683Z,3.07
2019-03-26T04:11:44.978Z,3.10
2019-03-26T04:14:13.252Z,2.20
2019-03-26T04:16:41.718Z,1.93
2019-03-26T04:19:10.022Z,3.17
2019-03-26T04:21:38.292Z,2.20
2019-03-26T04:24:06.991Z,3.00
2019-03-26T04:26:35.395Z,3.47
2019-03-26T04:29:03.631Z,2.47
2019-03-26T04:31:32.248Z,2.27
2019-03-26T04:34:00.505Z,2.53
2019-03-26T04:36:28.870Z,2.80
2019-03-26T04:38:57.119Z,2.67
2019-03-26T04:41:25.480Z,4.00
2019-03-26T04:43:53.851Z,2.40
2019-03-26T04:46:22.091Z,3.97
2019-03-26T04:48:50.346Z,2.90
2019-03-26T04:51:19.225Z,1.47
2019-03-26T04:53:47.512Z,3.33
2019-03-26T04:56:16.607Z,2.43
2019-03-26T04:58:44.927Z,2.63
2019-03-26T05:01:13.196Z,1.73
2019-03-26T05:03:41.460Z,3.20
2019-03-26T05:06:09.752Z,2.97
2019-03-26T05:08:38.344Z,4.13
2019-03-26T05:11:06.681Z,2.80
2019-03-26T05:13:34.922Z,1.70
2019-03-26T05:16:03.585Z,2.07
2019-03-26T05:18:32.557Z,2.17
2019-03-26T05:21:00.801Z,2.50
2019-03-26T05:23:29.210Z,1.67
2019-03-26T05:25:57.522Z,2.80
2019-03-26T05:28:26.683Z,3.00
2019-03-26T05:30:55.130Z,1.60
2019-03-26T05:33:23.982Z,0.83
2019-03-26T05:35:52.234Z,1.30
2019-03-26T05:38:20.529Z,1.43
2019-03-26T05:40:48.906Z,1.60
2019-03-26T05:43:17.149Z,1.53
2019-03-26T05:45:45.526Z,2.00
2019-03-26T05:48:13.823Z,1.37
2019-03-26T05:50:42.097Z,2.47
2019-03-26T05:53:11.236Z,1.97
2019-03-26T05:55:39.473Z,2.40
2019-03-26T05:58:07.820Z,3.63
2019-03-26T06:00:36.205Z,3.90
2019-03-26T06:03:04.480Z,1.60
2019-03-26T06:05:33.569Z,1.40
2019-03-26T06:08:03.419Z,2.03
2019-03-26T06:10:31.723Z,2.90
2019-03-26T06:13:00.056Z,2.20
2019-03-26T06:15:28.328Z,2.17
2019-03-26T06:17:57.669Z,2.00
2019-03-26T06:20:26.128Z,3.13
2019-03-26T06:22:54.430Z,2.40
2019-03-26T06:25:22.689Z,1.60
2019-03-26T06:27:50.948Z,1.90
2019-03-26T06:30:19.180Z,2.13
2019-03-26T06:32:47.572Z,3.23
2019-03-26T06:35:15.955Z,1.80
2019-03-26T06:37:44.236Z,2.03
2019-03-26T06:40:12.496Z,2.00
2019-03-26T06:42:41.011Z,2.23
2019-03-26T06:45:11.339Z,2.20
2019-03-26T06:47:39.620Z,1.00
2019-03-26T06:50:09.197Z,3.73
2019-03-26T06:52:37.503Z,2.53
2019-03-26T06:55:07.015Z,1.40
2019-03-26T06:57:36.114Z,1.33
2019-03-26T07:00:07.433Z,1.27
2019-03-26T07:02:35.813Z,1.23
2019-03-26T07:05:04.252Z,1.73
2019-03-26T07:07:32.577Z,1.73
2019-03-26T07:10:00.857Z,1.20
2019-03-26T07:12:29.158Z,1.90
2019-03-26T07:14:58.261Z,1.83
2019-03-26T07:17:27.341Z,1.33
2019-03-26T07:19:55.685Z,1.60
2019-03-26T07:22:24.106Z,1.70
2019-03-26T07:24:52.351Z,1.20
2019-03-26T07:27:21.428Z,2.63
2019-03-26T07:29:49.761Z,1.07
2019-03-26T07:32:18.544Z,1.80
2019-03-26T07:34:47.163Z,1.53
2019-03-26T07:37:15.516Z,1.00
2019-03-26T07:39:43.801Z,1.27
2019-03-26T07:42:12.061Z,1.73
2019-03-26T07:44:40.343Z,2.23
2019-03-26T07:47:08.604Z,1.50
2019-03-26T07:49:36.876Z,2.07
2019-03-26T07:52:05.284Z,1.37
2019-03-26T07:54:33.889Z,1.40
2019-03-26T07:57:02.139Z,1.50
2019-03-26T07:59:31.353Z,1.80
2019-03-26T08:01:59.640Z,1.47
2019-03-26T08:04:28.433Z,1.53
2019-03-26T08:06:56.742Z,2.67
2019-03-26T08:09:25.114Z,2.10
2019-03-26T08:11:53.433Z,2.90
2019-03-26T08:14:21.684Z,2.50
2019-03-26T08:16:50.781Z,2.50
2019-03-26T08:19:19.121Z,1.97
2019-03-26T08:21:47.468Z,2.30
2019-03-26T08:24:15.762Z,1.83
2019-03-26T08:26:46.383Z,2.47
2019-03-26T08:29:14.751Z,2.20
2019-03-26T08:31:43.108Z,2.20
2019-03-26T08:34:11.649Z,2.10
2019-03-26T08:36:39.993Z,1.93
2019-03-26T08:39:09.223Z,2.63
2019-03-26T08:41:37.579Z,2.93
2019-03-26T08:44:05.853Z,1.90
2019-03-26T08:46:34.565Z,2.90
2019-03-26T08:49:02.811Z,1.73
2019-03-26T08:51:31.121Z,2.30
2019-03-26T08:53:59.368Z,3.00
2019-03-26T08:56:27.641Z,3.30
2019-03-26T08:58:55.894Z,2.40
2019-03-26T09:01:24.322Z,2.13
2019-03-26T09:03:52.712Z,1.87
2019-03-26T09:06:21.001Z,3.40
2019-03-26T09:08:49.267Z,2.90
2019-03-26T09:11:17.518Z,2.80
2019-03-26T09:13:47.476Z,2.40
2019-03-26T09:16:15.762Z,2.50
2019-03-26T09:18:44.144Z,2.20
2019-03-26T09:21:12.440Z,3.90
2019-03-26T09:23:40.686Z,2.20
2019-03-26T09:26:09.254Z,2.60
2019-03-26T09:28:37.538Z,2.27
2019-03-26T09:31:05.775Z,2.40
2019-03-26T09:33:34.047Z,2.00
2019-03-26T09:36:02.922Z,1.70
2019-03-26T09:38:38.818Z,2.27
2019-03-26T09:41:01.555Z,2.70
2019-03-26T09:43:30.717Z,1.87
2019-03-26T09:45:59.013Z,2.63
2019-03-26T09:48:27.298Z,2.63
2019-03-26T09:50:55.567Z,2.10
2019-03-26T09:53:23.873Z,2.20
2019-03-26T09:55:52.142Z,2.30
2019-03-26T09:58:20.742Z,2.37
2019-03-26T10:00:49.146Z,2.40
2019-03-26T10:03:17.912Z,2.40
2019-03-26T10:05:46.163Z,1.37
2019-03-26T10:08:17.666Z,2.93
2019-03-26T10:10:44.494Z,1.60
2019-03-26T10:13:12.803Z,1.73
2019-03-26T10:15:41.098Z,2.30
2019-03-26T10:18:09.337Z,1.93
2019-03-26T10:20:37.720Z,2.10
2019-03-26T10:23:05.985Z,2.40
2019-03-26T10:25:34.820Z,2.37
2019-03-26T10:28:03.201Z,2.53
2019-03-26T10:30:36.405Z,3.00
2019-03-26T10:33:04.838Z,2.77
2019-03-26T10:35:33.497Z,4.07
2019-03-26T10:38:01.779Z,2.80
2019-03-26T10:40:35.277Z,2.53
2019-03-26T10:43:04.360Z,2.53
2019-03-26T10:45:32.961Z,2.53
2019-03-26T10:48:01.214Z,1.63
2019-03-26T10:50:29.483Z,4.10
2019-03-26T10:52:57.769Z,1.93
2019-03-26T10:55:28.743Z,2.70
2019-03-26T10:57:57.027Z,2.37
2019-03-26T11:00:25.485Z,2.00
2019-03-26T11:02:54.345Z,2.30
2019-03-26T11:05:22.663Z,3.10
2019-03-26T11:07:50.929Z,2.07
2019-03-26T11:10:19.522Z,3.60
2019-03-26T11:12:47.843Z,3.07
2019-03-26T11:15:16.586Z,1.97
2019-03-26T11:17:44.870Z,2.03
2019-03-26T11:20:13.200Z,1.70
2019-03-26T11:22:41.443Z,2.57
2019-03-26T11:25:12.203Z,2.20
2019-03-26T11:27:40.281Z,3.40
2019-03-26T11:30:08.524Z,3.30
2019-03-26T11:32:37.220Z,3.40
2019-03-26T11:35:08.228Z,3.17
2019-03-26T11:37:36.579Z,2.70
2019-03-26T11:40:06.899Z,2.17
2019-03-26T11:42:35.171Z,2.03
2019-03-26T11:45:04.578Z,2.47
2019-03-26T11:47:32.861Z,3.30
2019-03-26T11:50:01.263Z,2.70
2019-03-26T11:52:29.497Z,2.23
2019-03-26T11:54:58.022Z,2.27
2019-03-26T11:57:26.327Z,2.13
2019-03-26T11:59:54.637Z,1.90
2019-03-26T12:02:22.913Z,2.30
2019-03-26T12:04:51.199Z,3.20
2019-03-26T12:07:19.465Z,1.33
2019-03-26T12:09:47.759Z,2.47
2019-03-26T12:12:16.037Z,3.43
2019-03-26T12:14:44.341Z,2.17
2019-03-26T12:17:14.912Z,3.20
2019-03-26T12:19:44.578Z,2.90
2019-03-26T12:22:12.882Z,3.07
2019-03-26T12:24:41.300Z,2.27
2019-03-26T12:27:09.535Z,1.80
2019-03-26T12:29:37.927Z,2.17
2019-03-26T12:32:07.000Z,2.37
2019-03-26T12:34:35.239Z,1.50
2019-03-26T12:37:03.551Z,1.93
2019-03-26T12:39:31.901Z,2.10
2019-03-26T12:42:00.144Z,4.93
2019-03-26T12:44:28.954Z,2.20
2019-03-26T12:46:58.445Z,2.70
2019-03-26T12:49:26.866Z,1.50
2019-03-26T12:51:55.141Z,1.83
2019-03-26T12:54:23.734Z,1.93
2019-03-26T12:56:52.157Z,3.53
2019-03-26T12:59:20.405Z,2.00
2019-03-26T13:01:48.739Z,1.67
2019-03-26T13:04:17.054Z,2.17
2019-03-26T13:06:45.347Z,1.67
2019-03-26T13:09:13.606Z,2.80
2019-03-26T13:11:41.881Z,2.53
2019-03-26T13:14:10.136Z,2.87
2019-03-26T13:16:38.448Z,2.10
2019-03-26T13:19:06.892Z,2.87
2019-03-26T13:21:37.544Z,1.80
2019-03-26T13:24:05.164Z,2.63
2019-03-26T13:26:33.424Z,1.40
2019-03-26T13:29:01.671Z,2.83
2019-03-26T13:31:30.234Z,1.60
2019-03-26T13:33:58.488Z,1.80
2019-03-26T13:36:26.790Z,2.00
2019-03-26T13:38:55.108Z,2.70
2019-03-26T13:41:23.384Z,2.67
2019-03-26T13:43:51.649Z,2.33
2019-03-26T13:46:19.895Z,2.50
2019-03-26T13:48:48.164Z,2.37
2019-03-26T13:51:17.217Z,3.43
2019-03-26T13:53:45.506Z,2.27
2019-03-26T13:56:13.822Z,2.07
2019-03-26T13:58:42.103Z,2.57
2019-03-26T14:01:10.414Z,1.67
2019-03-26T14:03:38.715Z,2.73
2019-03-26T14:06:07.732Z,2.33
2019-03-26T14:08:36.898Z,2.33
2019-03-26T14:11:05.162Z,1.63
2019-03-26T14:13:33.429Z,2.50
2019-03-26T14:16:01.670Z,1.63
2019-03-26T14:18:29.934Z,2.07
2019-03-26T14:20:58.213Z,1.80
2019-03-26T14:23:26.451Z,1.60
2019-03-26T14:25:54.730Z,1.93
2019-03-26T14:28:23.150Z,2.30
2019-03-26T14:30:51.385Z,1.60
2019-03-26T14:33:19.929Z,2.47
2019-03-26T14:35:48.348Z,3.00
2019-03-26T14:38:16.594Z,2.90
2019-03-26T14:40:54.477Z,1.93
2019-03-26T14:43:15.184Z,1.97
2019-03-26T14:45:43.442Z,2.07
2019-03-26T14:48:11.705Z,3.23
2019-03-26T14:50:40.002Z,2.50
2019-03-26T14:53:08.257Z,1.83
2019-03-26T14:55:36.881Z,1.90
2019-03-26T14:58:05.920Z,2.50
2019-03-26T15:00:34.761Z,2.37
2019-03-26T15:03:03.044Z,1.80
2019-03-26T15:05:31.311Z,2.00
2019-03-26T15:07:59.567Z,1.93
2019-03-26T15:10:29.526Z,2.40
2019-03-26T15:12:57.856Z,1.50
2019-03-26T15:15:26.151Z,1.87
2019-03-26T15:17:54.532Z,2.10
2019-03-26T15:20:22.852Z,1.47
2019-03-26T15:22:51.127Z,2.40
2019-03-26T15:25:19.374Z,2.33
2019-03-26T15:27:47.655Z,1.90
2019-03-26T15:30:16.003Z,2.20
2019-03-26T15:32:45.003Z,2.60
2019-03-26T15:35:13.957Z,1.80
2019-03-26T15:37:42.611Z,1.77
2019-03-26T15:40:11.337Z,2.30
2019-03-26T15:42:39.627Z,2.17
2019-03-26T15:45:09.712Z,2.60
2019-03-26T15:47:37.965Z,1.80
2019-03-26T15:50:06.394Z,2.03
2019-03-26T15:52:34.638Z,2.10
2019-03-26T15:55:02.915Z,2.90
2019-03-26T15:57:31.158Z,3.17
2019-03-26T15:59:59.460Z,3.10
2019-03-26T16:02:27.701Z,1.83
2019-03-26T16:04:55.979Z,2.17
2019-03-26T16:07:24.278Z,3.33
2019-03-26T16:09:52.525Z,2.63
2019-03-26T16:12:20.807Z,2.77
2019-03-26T16:14:49.053Z,3.33
2019-03-26T16:17:17.373Z,3.50
2019-03-26T16:19:45.699Z,2.33
2019-03-26T16:22:14.016Z,2.90
2019-03-26T16:24:42.297Z,2.57
2019-03-26T16:27:10.583Z,2.43
2019-03-26T16:29:38.884Z,3.00
2019-03-26T16:32:07.150Z,1.60
2019-03-26T16:34:35.427Z,2.60
2019-03-26T16:37:03.696Z,2.20
2019-03-26T16:39:32.289Z,3.10
2019-03-26T16:42:00.668Z,3.10
2019-03-26T16:44:28.977Z,2.10
2019-03-26T16:46:57.231Z,2.30
2019-03-26T16:49:25.502Z,1.33
2019-03-26T16:51:53.766Z,2.47
2019-03-26T16:54:22.015Z,2.57
2019-03-26T16:56:50.857Z,2.10
2019-03-26T16:59:19.194Z,1.60
2019-03-26T17:01:48.146Z,2.20
2019-03-26T17:04:16.415Z,2.27
2019-03-26T17:06:44.772Z,3.17
2019-03-26T17:09:13.106Z,3.47
2019-03-26T17:11:41.363Z,2.27
2019-03-26T17:14:09.642Z,2.80
2019-03-26T17:16:38.184Z,2.97
2019-03-26T17:19:06.460Z,2.40
2019-03-26T17:21:34.745Z,2.60
2019-03-26T17:24:03.107Z,3.37
2019-03-26T17:26:32.036Z,3.30
2019-03-26T17:29:00.351Z,3.97
2019-03-26T17:31:28.644Z,4.10
2019-03-26T17:33:56.915Z,4.50
2019-03-26T17:36:25.210Z,5.10
2019-03-26T17:38:53.466Z,5.10
2019-03-26T17:41:21.779Z,3.67
2019-03-26T17:43:50.055Z,4.27
2019-03-26T17:46:18.740Z,4.10
2019-03-26T17:48:46.997Z,3.80
2019-03-26T17:51:15.253Z,4.30
2019-03-26T17:53:44.101Z,3.60
2019-03-26T17:56:12.363Z,3.73
2019-03-26T17:58:40.725Z,3.90
2019-03-26T18:01:08.997Z,3.80
2019-03-26T18:03:37.234Z,2.00
2019-03-26T18:06:05.558Z,2.50
2019-03-26T18:08:33.871Z,2.87
2019-03-26T18:11:02.194Z,2.50
2019-03-26T18:13:30.429Z,3.77
2019-03-26T18:15:58.749Z,3.13
2019-03-26T18:18:27.016Z,4.00
2019-03-26T18:20:55.259Z,4.30
2019-03-26T18:23:23.629Z,5.70
2019-03-26T18:25:54.334Z,3.80
2019-03-26T18:28:21.865Z,2.50
2019-03-26T18:30:50.163Z,2.90
2019-03-26T18:33:18.535Z,4.10
2019-03-26T18:35:46.775Z,3.00
2019-03-26T18:38:15.590Z,3.30
2019-03-26T18:40:44.024Z,3.30
2019-03-26T18:43:12.257Z,3.57
2019-03-26T18:45:40.674Z,3.60
2019-03-26T18:48:08.951Z,3.50
2019-03-26T18:50:37.213Z,2.90
2019-03-26T18:53:05.588Z,3.00
2019-03-26T18:55:33.829Z,2.90
2019-03-26T18:58:02.691Z,3.53
2019-03-26T19:00:35.101Z,3.63
2019-03-26T19:03:03.578Z,3.17
2019-03-26T19:05:31.886Z,3.20
2019-03-26T19:08:00.164Z,3.27
2019-03-26T19:10:30.143Z,4.60
2019-03-26T19:12:58.440Z,4.77
2019-03-26T19:15:26.685Z,3.67
2019-03-26T19:17:54.943Z,3.63
2019-03-26T19:20:23.232Z,4.10
2019-03-26T19:22:51.634Z,3.87
2019-03-26T19:25:19.880Z,4.37
2019-03-26T19:27:48.125Z,3.70
2019-03-26T19:30:16.542Z,4.20
2019-03-26T19:32:44.882Z,3.30
2019-03-26T19:35:13.119Z,3.50
2019-03-26T19:37:41.532Z,4.67
2019-03-26T19:40:09.882Z,7.00
2019-03-26T19:42:38.155Z,5.60
2019-03-26T19:45:06.445Z,4.93
2019-03-26T19:47:35.580Z,4.67
2019-03-26T19:50:06.720Z,5.80
2019-03-26T19:52:34.977Z,4.30
2019-03-26T19:55:03.293Z,4.50
2019-03-26T19:57:31.570Z,5.77
2019-03-26T19:59:59.818Z,5.47
2019-03-26T20:02:28.089Z,6.00
2019-03-26T20:04:56.343Z,5.10
2019-03-26T20:07:25.530Z,4.43
2019-03-26T20:09:53.774Z,4.47
2019-03-26T20:12:22.089Z,5.67
2019-03-26T20:14:50.329Z,6.70
2019-03-26T20:17:18.686Z,6.40
2019-03-26T20:19:47.026Z,4.70
2019-03-26T20:22:15.316Z,5.43
2019-03-26T20:24:43.605Z,5.50
2019-03-26T20:27:11.959Z,4.60
2019-03-26T20:29:40.188Z,4.77
2019-03-26T20:32:08.645Z,5.97
2019-03-26T20:34:37.952Z,5.37
2019-03-26T20:37:06.197Z,6.10
2019-03-26T20:39:34.471Z,5.57
2019-03-26T20:42:02.767Z,5.47
2019-03-26T20:44:31.031Z,5.97
2019-03-26T20:46:59.281Z,4.47
2019-03-26T20:49:28.220Z,5.43
2019-03-26T20:51:56.513Z,5.10
2019-03-26T20:54:24.777Z,6.40
2019-03-26T20:56:53.211Z,5.80
2019-03-26T20:59:21.509Z,5.70
2019-03-26T21:01:49.805Z,5.37
2019-03-26T21:04:18.074Z,6.10
2019-03-26T21:06:46.448Z,4.80
2019-03-26T21:09:14.822Z,5.60
2019-03-26T21:11:43.936Z,5.67
2019-03-26T21:14:12.214Z,5.50
2019-03-26T21:16:40.495Z,6.93
2019-03-26T21:19:08.967Z,4.37
2019-03-26T21:21:37.564Z,7.33
2019-03-26T21:24:05.832Z,5.60
2019-03-26T21:26:34.111Z,5.87
2019-03-26T21:29:02.384Z,5.97
2019-03-26T21:31:32.442Z,6.17
2019-03-26T21:34:00.808Z,6.83
2019-03-26T21:36:29.084Z,4.77
2019-03-26T21:38:57.991Z,5.40
2019-03-26T21:41:27.008Z,5.27
2019-03-26T21:44:04.033Z,5.40
2019-03-26T21:46:25.353Z,6.57
2019-03-26T21:48:53.594Z,5.50
2019-03-26T21:51:21.864Z,5.53
2019-03-26T21:53:50.219Z,4.80
2019-03-26T21:56:18.878Z,6.50
2019-03-26T21:58:47.139Z,5.50
2019-03-26T22:01:15.428Z,5.67
2019-03-26T22:03:43.693Z,6.13
2019-03-26T22:06:11.987Z,5.83
2019-03-26T22:08:40.972Z,6.00
2019-03-26T22:11:09.277Z,5.57
2019-03-26T22:13:37.589Z,6.40
2019-03-26T22:16:05.863Z,5.27
2019-03-26T22:18:34.133Z,5.37
2019-03-26T22:21:02.423Z,5.43
2019-03-26T22:23:30.755Z,5.93
2019-03-26T22:25:59.000Z,4.80
2019-03-26T22:28:27.420Z,6.23
2019-03-26T22:30:55.657Z,6.50
2019-03-26T22:33:23.901Z,6.77
2019-03-26T22:35:52.187Z,7.07
2019-03-26T22:38:20.462Z,6.63
2019-03-26T22:40:48.870Z,6.57
2019-03-26T22:43:17.154Z,6.90
2019-03-26T22:45:45.447Z,5.63
2019-03-26T22:48:13.707Z,6.40
2019-03-26T22:50:42.721Z,7.23
2019-03-26T22:53:11.048Z,7.27
2019-03-26T22:55:39.288Z,6.90
2019-03-26T22:58:07.558Z,6.27
2019-03-26T23:00:35.893Z,7.00
2019-03-26T23:03:04.582Z,7.20
2019-03-26T23:05:32.881Z,5.67
2019-03-26T23:08:01.229Z,6.87
2019-03-26T23:10:29.676Z,8.13
2019-03-26T23:12:57.981Z,6.80
2019-03-26T23:15:26.239Z,7.23
2019-03-26T23:17:54.612Z,6.97
2019-03-26T23:20:23.022Z,6.80
2019-03-26T23:22:51.309Z,6.10
2019-03-26T23:25:19.616Z,5.47
2019-03-26T23:27:47.925Z,6.30
2019-03-26T23:30:17.200Z,7.50
2019-03-26T23:32:45.627Z,5.57
2019-03-26T23:35:14.142Z,7.67
2019-03-26T23:37:42.814Z,6.40
2019-03-26T23:40:11.900Z,6.57
2019-03-26T23:42:40.171Z,6.90
2019-03-26T23:45:08.889Z,5.93
2019-03-26T23:47:37.135Z,6.87
2019-03-26T23:50:08.860Z,6.70
2019-03-26T23:52:37.186Z,5.93
2019-03-26T23:55:07.610Z,5.17
2019-03-26T23:57:37.372Z,5.33
